Time;durP1;ratioP1;P1;durP2;ratioP2;P2;SDS_P1;SDS_P2;PMS_P1;PMS_P2;Temp;Humidity;BMP_temperature;BMP_pressure;BME280_temperature;BME280_humidity;BME280_pressure;Samples;Min_cycle;Max_cycle;Signal;HPM_P1;HPM_P2
2023/06/12 00:00:55;;;;;;;7.22;3.72;;;19.50;96.80;;;;;;5154339;27;20048;-68
2023/06/12 00:03:26;;;;;;;6.30;3.92;;;19.50;96.30;;;;;;5154136;27;20057;-67
2023/06/12 00:05:58;;;;;;;6.78;3.83;;;19.50;95.70;;;;;;5154955;27;20047;-68
2023/06/12 00:08:26;;;;;;;4.30;3.33;;;19.40;95.20;;;;;;5154156;27;20117;-67
2023/06/12 00:10:52;;;;;;;6.80;3.83;;;19.40;95.70;;;;;;5154126;27;20041;-68
2023/06/12 00:13:17;;;;;;;6.43;3.75;;;19.40;94.90;;;;;;5154028;27;20447;-68
2023/06/12 00:15:43;;;;;;;5.85;3.20;;;19.30;95.10;;;;;;5153862;27;20105;-68
2023/06/12 00:18:11;;;;;;;5.38;3.42;;;19.30;95.00;;;;;;5154373;27;20068;-66
2023/06/12 00:20:36;;;;;;;3.97;3.50;;;19.20;94.90;;;;;;5153834;27;20046;-66
2023/06/12 00:23:02;;;;;;;6.18;3.75;;;19.20;95.00;;;;;;5135786;27;20050;-69
2023/06/12 00:25:28;;;;;;;5.07;3.25;;;19.20;95.00;;;;;;5153852;27;20049;-69
2023/06/12 00:27:54;;;;;;;5.22;3.13;;;19.10;94.80;;;;;;5153674;27;20046;-67
2023/06/12 00:30:20;;;;;;;4.72;3.25;;;19.10;96.20;;;;;;5136261;27;20128;-66
2023/06/12 00:32:46;;;;;;;5.53;3.75;;;19.10;96.20;;;;;;5154092;27;20043;-69
2023/06/12 00:35:12;;;;;;;4.32;2.85;;;19.00;96.10;;;;;;5153871;27;20045;-67
2023/06/12 00:37:41;;;;;;;4.78;3.22;;;19.00;96.50;;;;;;5153905;27;20085;-67
2023/06/12 00:40:10;;;;;;;4.03;3.35;;;19.00;96.70;;;;;;5153933;27;20093;-69
2023/06/12 00:42:47;;;;;;;6.32;3.45;;;19.00;97.50;;;;;;5153717;27;20082;-67
2023/06/12 00:45:19;;;;;;;5.78;2.97;;;18.90;97.00;;;;;;5135385;27;20039;-68
2023/06/12 00:47:57;;;;;;;6.50;3.05;;;18.80;97.00;;;;;;5118439;27;20457;-67
2023/06/12 00:50:26;;;;;;;4.35;2.90;;;18.80;96.50;;;;;;5153765;27;20558;-66
2023/06/12 00:52:52;;;;;;;5.85;3.20;;;18.80;97.10;;;;;;5153671;27;20047;-67
2023/06/12 00:55:18;;;;;;;4.57;3.13;;;18.70;98.00;;;;;;5153618;27;20119;-67
2023/06/12 00:57:46;;;;;;;3.08;2.80;;;18.70;98.00;;;;;;5153721;27;20558;-67
2023/06/12 01:00:14;;;;;;;5.75;3.70;;;18.70;98.90;;;;;;5135765;27;20050;-67
2023/06/12 01:02:46;;;;;;;3.47;3.17;;;18.70;97.90;;;;;;5153640;27;20051;-68
2023/06/12 01:05:13;;;;;;;6.05;3.60;;;18.60;97.50;;;;;;5153433;27;20043;-67
2023/06/12 01:07:47;;;;;;;6.07;2.70;;;18.60;97.10;;;;;;5154280;27;20401;-67
2023/06/12 01:10:34;;;;;;;3.55;3.25;;;18.40;96.80;;;;;;5153643;27;20049;-68
2023/06/12 01:13:00;;;;;;;3.70;3.17;;;18.40;96.70;;;;;;5157326;27;20043;-67
2023/06/12 01:15:26;;;;;;;6.30;3.17;;;18.40;97.10;;;;;;5139644;27;20047;-68
2023/06/12 01:17:51;;;;;;;6.13;3.72;;;18.30;97.80;;;;;;5122204;27;20047;-67
2023/06/12 01:20:18;;;;;;;5.55;3.28;;;18.30;97.90;;;;;;5157434;27;20082;-66
2023/06/12 01:22:55;;;;;;;3.83;2.85;;;18.30;98.50;;;;;;5157179;27;20050;-67
2023/06/12 01:25:53;;;;;;;4.97;3.72;;;18.30;99.60;;;;;;5156925;27;20034;-67
2023/06/12 01:28:53;;;;;;;4.97;3.13;;;18.20;98.90;;;;;;5148039;27;20090;-67
2023/06/12 01:31:19;;;;;;;6.53;3.10;;;18.20;98.70;;;;;;5157475;27;20046;-68
2023/06/12 01:33:54;;;;;;;5.88;3.25;;;18.10;99.50;;;;;;5156900;27;20116;-67
2023/06/12 01:36:24;;;;;;;5.93;3.28;;;18.10;99.90;;;;;;5138463;27;20057;-66
2023/06/12 01:38:58;;;;;;;6.40;3.05;;;18.10;99.90;;;;;;5156993;27;20576;-66
2023/06/12 01:41:27;;;;;;;5.65;2.92;;;18.10;99.90;;;;;;5157272;27;20051;-67
2023/06/12 01:43:53;;;;;;;5.80;3.22;;;18.10;99.90;;;;;;5156339;27;20539;-67
2023/06/12 01:46:19;;;;;;;3.42;2.95;;;18.00;99.90;;;;;;5138989;27;20038;-68
2023/06/12 01:48:44;;;;;;;4.88;3.17;;;18.00;99.90;;;;;;5138256;27;20046;-67
2023/06/12 01:51:10;;;;;;;6.68;3.83;;;17.90;99.90;;;;;;5138136;27;20145;-67
2023/06/12 01:53:36;;;;;;;4.85;3.45;;;17.80;99.90;;;;;;5156923;27;20123;-67
2023/06/12 01:56:02;;;;;;;7.90;3.67;;;17.80;99.90;;;;;;5156435;27;20057;-67
2023/06/12 01:58:28;;;;;;;4.72;3.30;;;17.70;99.90;;;;;;5156979;27;20046;-67
2023/06/12 02:00:55;;;;;;;5.50;3.67;;;17.70;99.90;;;;;;5156671;27;20078;-67
2023/06/12 02:03:22;;;;;;;4.55;3.00;;;17.70;99.90;;;;;;5156780;27;20046;-67
2023/06/12 02:05:49;;;;;;;6.05;4.03;;;17.70;99.90;;;;;;5156261;27;20043;-67
2023/06/12 02:08:14;;;;;;;5.78;3.58;;;17.60;99.90;;;;;;5156747;27;20088;-67
2023/06/12 02:10:40;;;;;;;7.60;3.45;;;17.50;99.90;;;;;;5157088;27;20098;-67
2023/06/12 02:13:06;;;;;;;5.63;3.25;;;17.50;99.90;;;;;;5156166;27;20401;-67
2023/06/12 02:15:32;;;;;;;5.35;3.42;;;17.50;99.90;;;;;;5156055;27;20043;-67
2023/06/12 02:17:57;;;;;;;4.93;3.55;;;17.50;99.90;;;;;;5156058;27;20047;-67
2023/06/12 02:20:23;;;;;;;6.20;3.60;;;17.40;99.90;;;;;;5156596;27;20099;-68
2023/06/12 02:22:49;;;;;;;4.60;3.03;;;17.40;99.90;;;;;;5154940;27;20517;-69
2023/06/12 02:25:14;;;;;;;3.88;3.17;;;17.40;99.90;;;;;;5137406;27;20039;-67
2023/06/12 02:27:40;;;;;;;7.07;3.70;;;17.30;99.90;;;;;;5156038;27;20118;-67
2023/06/12 02:30:06;;;;;;;4.85;3.60;;;17.20;99.90;;;;;;5156236;27;20042;-67
2023/06/12 02:32:35;;;;;;;5.70;3.08;;;17.20;99.90;;;;;;5137617;27;20042;-67
2023/06/12 02:35:01;;;;;;;4.90;3.80;;;17.20;99.90;;;;;;5137323;27;20039;-67
2023/06/12 02:37:28;;;;;;;4.13;3.53;;;17.20;99.90;;;;;;5155745;27;20053;-67
2023/06/12 02:39:54;;;;;;;6.07;3.90;;;17.10;99.90;;;;;;5155404;27;20424;-67
2023/06/12 02:42:19;;;;;;;5.35;3.40;;;17.10;99.90;;;;;;5137382;27;20043;-66
2023/06/12 02:44:45;;;;;;;4.85;3.70;;;17.00;99.90;;;;;;5155475;27;20039;-66
2023/06/12 02:47:11;;;;;;;6.13;4.00;;;16.90;99.90;;;;;;5155585;27;20082;-67
2023/06/12 02:49:44;;;;;;;7.00;3.97;;;16.90;99.90;;;;;;5155425;27;20053;-67
2023/06/12 02:52:10;;;;;;;5.43;4.07;;;16.80;99.90;;;;;;5155656;27;20463;-66
2023/06/12 02:54:36;;;;;;;7.35;4.25;;;16.80;99.90;;;;;;5155546;27;20064;-67
2023/06/12 02:57:02;;;;;;;6.05;4.65;;;16.80;99.90;;;;;;5155047;27;20051;-67
2023/06/12 02:59:27;;;;;;;7.63;4.35;;;16.70;99.90;;;;;;5155167;27;20050;-66
2023/06/12 03:01:53;;;;;;;9.73;6.20;;;16.70;99.90;;;;;;5155414;27;20121;-67
2023/06/12 03:04:20;;;;;;;9.40;5.38;;;16.60;99.90;;;;;;5155037;27;20457;-68
2023/06/12 03:06:53;;;;;;;4.88;3.95;;;16.50;99.90;;;;;;5137057;27;20081;-68
2023/06/12 03:09:23;;;;;;;7.03;5.13;;;16.50;99.90;;;;;;5155147;27;20111;-67
2023/06/12 03:11:51;;;;;;;6.78;5.57;;;16.40;99.90;;;;;;5155095;27;20089;-68
2023/06/12 03:14:21;;;;;;;10.82;4.72;;;16.30;99.90;;;;;;5155274;27;20372;-66
2023/06/12 03:16:48;;;;;;;6.07;3.75;;;16.30;99.90;;;;;;5136696;27;20050;-67
2023/06/12 03:19:14;;;;;;;6.35;4.40;;;16.20;99.90;;;;;;5154957;27;20066;-69
2023/06/12 03:21:40;;;;;;;6.53;4.55;;;16.20;99.90;;;;;;5154922;27;20046;-66
2023/06/12 03:24:06;;;;;;;7.13;4.60;;;16.20;99.90;;;;;;5154271;27;20506;-68
2023/06/12 03:26:33;;;;;;;6.97;4.28;;;16.10;99.90;;;;;;5154814;27;20046;-67
2023/06/12 03:29:03;;;;;;;5.65;4.13;;;16.10;99.90;;;;;;5154693;27;20066;-67
2023/06/12 03:31:29;;;;;;;7.43;4.03;;;16.10;99.90;;;;;;5154749;27;20130;-68
2023/06/12 03:33:55;;;;;;;8.82;4.55;;;16.00;99.90;;;;;;5154759;27;20049;-68
2023/06/12 03:36:23;;;;;;;6.93;4.30;;;16.00;99.90;;;;;;5136190;27;20050;-67
2023/06/12 03:38:49;;;;;;;7.15;4.13;;;16.00;99.90;;;;;;5154908;27;20106;-68
2023/06/12 03:41:14;;;;;;;6.95;3.95;;;15.90;99.90;;;;;;5154642;27;20043;-67
2023/06/12 03:43:40;;;;;;;5.85;4.03;;;16.00;99.90;;;;;;5135903;27;20046;-67
2023/06/12 03:46:06;;;;;;;5.22;4.10;;;16.00;99.90;;;;;;5155107;27;20042;-67
2023/06/12 03:48:31;;;;;;;9.43;4.70;;;16.00;99.90;;;;;;5119577;27;20058;-68
2023/06/12 03:50:57;;;;;;;5.28;3.90;;;16.00;99.90;;;;;;5154649;27;20440;-67
2023/06/12 03:53:23;;;;;;;6.47;4.43;;;16.00;99.90;;;;;;5154229;27;20122;-67
2023/06/12 03:55:48;;;;;;;8.85;5.00;;;16.00;99.90;;;;;;5154163;27;20047;-70
2023/06/12 03:58:16;;;;;;;5.82;5.22;;;16.00;99.90;;;;;;5154325;27;20122;-67
2023/06/12 04:00:45;;;;;;;4.90;3.83;;;16.00;99.90;;;;;;5154668;27;20046;-67
2023/06/12 04:03:14;;;;;;;6.55;4.20;;;16.00;99.90;;;;;;5154386;27;20046;-67
2023/06/12 04:05:39;;;;;;;7.28;4.45;;;16.10;99.90;;;;;;5119141;27;20049;-67
2023/06/12 04:08:05;;;;;;;5.88;4.25;;;16.10;99.90;;;;;;5136506;27;20050;-67
2023/06/12 04:10:33;;;;;;;7.63;4.07;;;16.10;99.90;;;;;;5154083;27;20095;-68
2023/06/12 04:12:58;;;;;;;6.75;4.15;;;16.10;99.90;;;;;;5154557;27;20050;-68
2023/06/12 04:15:24;;;;;;;7.70;4.72;;;16.10;99.90;;;;;;5154084;27;20038;-67
2023/06/12 04:17:50;;;;;;;6.95;4.15;;;16.10;99.90;;;;;;5136490;27;20050;-67
2023/06/12 04:20:15;;;;;;;6.65;4.65;;;16.20;99.90;;;;;;5153967;27;20039;-67
2023/06/12 04:22:41;;;;;;;6.93;4.43;;;16.40;99.90;;;;;;5154564;27;20099;-66
2023/06/12 04:25:08;;;;;;;10.88;5.07;;;16.20;99.90;;;;;;5153850;27;20501;-69
2023/06/12 04:27:34;;;;;;;9.25;4.85;;;16.10;99.90;;;;;;5135470;27;20066;-68
2023/06/12 04:30:00;;;;;;;5.65;4.47;;;17.20;99.90;;;;;;5153966;27;20054;-70
2023/06/12 04:32:25;;;;;;;5.68;4.72;;;15.60;99.90;;;;;;5135769;27;20043;-68
2023/06/12 04:34:54;;;;;;;7.97;4.35;;;16.20;99.90;;;;;;5153946;27;20064;-67
2023/06/12 04:37:21;;;;;;;6.75;4.68;;;15.90;99.90;;;;;;5153878;27;20047;-67
2023/06/12 04:39:47;;;;;;;5.97;4.43;;;16.00;99.90;;;;;;5154392;27;20106;-67
2023/06/12 04:42:16;;;;;;;6.60;4.68;;;16.30;99.90;;;;;;5154383;27;20070;-68
2023/06/12 04:44:43;;;;;;;10.18;4.80;;;16.40;99.90;;;;;;5154111;27;20043;-67
2023/06/12 04:47:10;;;;;;;7.90;5.00;;;16.40;99.90;;;;;;5156718;27;20050;-68
2023/06/12 04:49:43;;;;;;;6.68;5.05;;;16.40;99.90;;;;;;5158208;27;20050;-68
2023/06/12 04:52:09;;;;;;;7.28;4.57;;;16.50;99.90;;;;;;5157862;27;20051;-68
2023/06/12 04:54:41;;;;;;;6.75;4.10;;;16.50;99.90;;;;;;5157795;27;20047;-68
2023/06/12 04:57:12;;;;;;;10.60;6.88;;;16.50;99.90;;;;;;5158347;27;20442;-68
2023/06/12 04:59:42;;;;;;;7.07;5.32;;;16.50;99.90;;;;;;5123463;27;20053;-67
2023/06/12 05:02:08;;;;;;;6.53;4.53;;;16.60;99.90;;;;;;5157614;27;20485;-67
2023/06/12 05:04:38;;;;;;;9.77;4.82;;;16.70;99.90;;;;;;5157393;27;20035;-68
2023/06/12 05:07:14;;;;;;;10.75;5.38;;;16.70;99.90;;;;;;5157525;27;20078;-68
2023/06/12 05:09:46;;;;;;;6.50;5.25;;;16.70;99.90;;;;;;5157913;27;20122;-67
2023/06/12 05:12:12;;;;;;;6.50;4.80;;;16.80;99.90;;;;;;5138873;27;20074;-66
2023/06/12 05:14:43;;;;;;;7.40;5.07;;;16.80;99.90;;;;;;5157644;27;20039;-68
2023/06/12 05:17:09;;;;;;;10.20;5.40;;;16.90;99.90;;;;;;5156866;27;20459;-69
2023/06/12 05:19:38;;;;;;;7.53;4.78;;;16.90;99.90;;;;;;5157826;27;20100;-67
2023/06/12 05:22:04;;;;;;;8.52;5.50;;;17.00;99.90;;;;;;5157536;27;20051;-67
2023/06/12 05:24:30;;;;;;;7.22;4.70;;;17.00;99.90;;;;;;5156994;27;20039;-67
2023/06/12 05:26:55;;;;;;;10.90;5.60;;;17.10;99.90;;;;;;5157445;27;20049;-67
2023/06/12 05:29:21;;;;;;;8.23;4.93;;;17.30;99.90;;;;;;5138842;27;20513;-66
2023/06/12 05:31:47;;;;;;;8.30;5.07;;;17.30;99.90;;;;;;5156828;27;20486;-68
2023/06/12 05:34:12;;;;;;;6.18;5.13;;;17.40;99.90;;;;;;5156906;27;20047;-67
2023/06/12 05:36:38;;;;;;;9.27;5.57;;;17.40;99.90;;;;;;5156810;27;20055;-67
2023/06/12 05:39:04;;;;;;;6.78;5.43;;;17.60;99.90;;;;;;5156786;27;20510;-66
2023/06/12 05:41:30;;;;;;;8.52;5.30;;;17.60;99.90;;;;;;5156857;27;20043;-66
2023/06/12 05:43:56;;;;;;;8.68;5.85;;;17.70;99.90;;;;;;5138497;27;20046;-66
2023/06/12 05:46:22;;;;;;;9.30;5.63;;;17.80;99.90;;;;;;5157213;27;20046;-68
2023/06/12 05:48:49;;;;;;;8.38;5.32;;;17.90;99.90;;;;;;5138529;27;20529;-68
2023/06/12 05:51:15;;;;;;;7.72;5.30;;;18.00;99.90;;;;;;5156646;27;20136;-66
2023/06/12 05:53:44;;;;;;;7.72;5.43;;;18.10;99.90;;;;;;5156374;27;20093;-67
2023/06/12 05:56:12;;;;;;;6.57;5.22;;;18.20;99.90;;;;;;5156125;27;20621;-66
2023/06/12 05:58:44;;;;;;;6.68;5.63;;;18.30;99.90;;;;;;5156119;27;20054;-68
2023/06/12 06:01:11;;;;;;;6.28;5.40;;;18.40;99.90;;;;;;5138324;27;20084;-66
2023/06/12 06:03:42;;;;;;;8.52;5.95;;;18.60;99.90;;;;;;5156772;27;20050;-67
2023/06/12 06:06:17;;;;;;;8.40;5.03;;;18.70;99.90;;;;;;5138190;27;20051;-68
2023/06/12 06:08:43;;;;;;;7.25;5.50;;;18.90;99.90;;;;;;5156265;27;20047;-69
2023/06/12 06:11:09;;;;;;;9.35;6.40;;;19.10;99.90;;;;;;5157046;27;20046;-66
2023/06/12 06:13:35;;;;;;;6.90;5.80;;;19.30;99.90;;;;;;5137566;27;20135;-67
2023/06/12 06:16:02;;;;;;;6.75;5.28;;;19.30;99.90;;;;;;5156074;27;20125;-66
2023/06/12 06:18:28;;;;;;;11.15;5.80;;;19.60;99.90;;;;;;5156059;27;20042;-67
2023/06/12 06:20:54;;;;;;;8.95;5.22;;;20.60;99.90;;;;;;5156152;27;20050;-66
2023/06/12 06:23:21;;;;;;;7.68;5.15;;;21.90;99.90;;;;;;5155990;27;20531;-66
2023/06/12 06:25:47;;;;;;;9.55;5.28;;;22.90;99.90;;;;;;5137463;27;20046;-66
2023/06/12 06:28:13;;;;;;;6.32;4.82;;;23.80;99.50;;;;;;5156101;27;20134;-65
2023/06/12 06:30:39;;;;;;;6.85;4.82;;;24.70;97.50;;;;;;5155876;27;20054;-67
2023/06/12 06:33:05;;;;;;;6.10;5.07;;;25.30;96.80;;;;;;5155661;27;20042;-67
2023/06/12 06:35:31;;;;;;;4.75;4.35;;;25.40;95.00;;;;;;5156019;27;20047;-66
2023/06/12 06:37:56;;;;;;;10.68;5.03;;;25.20;95.60;;;;;;5137366;27;20118;-67
2023/06/12 06:40:22;;;;;;;5.50;4.47;;;25.40;95.50;;;;;;5137657;27;20090;-68
2023/06/12 06:42:48;;;;;;;6.40;4.47;;;26.10;94.90;;;;;;5155969;27;20071;-68
2023/06/12 06:45:13;;;;;;;6.90;5.15;;;26.20;94.20;;;;;;5155358;27;20046;-67
2023/06/12 06:47:39;;;;;;;6.45;4.82;;;26.40;92.80;;;;;;5103592;27;20071;-68
2023/06/12 06:50:05;;;;;;;12.15;5.22;;;26.60;93.60;;;;;;5137311;27;20047;-65
2023/06/12 06:52:31;;;;;;;6.60;5.13;;;26.60;92.20;;;;;;5155587;27;20053;-67
2023/06/12 06:54:57;;;;;;;8.70;4.88;;;26.70;93.20;;;;;;5154831;27;20034;-65
2023/06/12 06:57:23;;;;;;;7.55;5.18;;;27.20;92.50;;;;;;5155388;27;20093;-67
2023/06/12 06:59:50;;;;;;;7.25;4.60;;;27.70;92.20;;;;;;5155050;27;20166;-66
2023/06/12 07:02:16;;;;;;;8.18;5.40;;;27.80;91.60;;;;;;5155574;27;20085;-67
2023/06/12 07:04:42;;;;;;;4.85;4.38;;;27.90;91.60;;;;;;5155053;27;20074;-64
2023/06/12 07:07:08;;;;;;;5.93;4.70;;;28.40;91.10;;;;;;5136501;27;20556;-66
2023/06/12 07:09:34;;;;;;;7.70;5.22;;;28.80;90.40;;;;;;5135977;27;20126;-66
2023/06/12 07:12:00;;;;;;;9.98;5.68;;;29.20;90.10;;;;;;5155554;27;20125;-64
2023/06/12 07:14:25;;;;;;;5.95;4.65;;;29.10;89.20;;;;;;5155352;27;20435;-64
2023/06/12 07:16:51;;;;;;;5.55;4.97;;;28.70;88.30;;;;;;5154834;27;20035;-64
2023/06/12 07:19:17;;;;;;;15.52;6.13;;;28.90;88.80;;;;;;5136448;27;20046;-64
2023/06/12 07:21:42;;;;;;;9.13;5.38;;;28.50;88.60;;;;;;5135954;27;20083;-65
2023/06/12 07:24:08;;;;;;;6.60;5.07;;;28.60;88.90;;;;;;5154463;27;20034;-66
2023/06/12 07:26:34;;;;;;;8.10;5.13;;;28.40;88.60;;;;;;5154631;27;20093;-65
2023/06/12 07:29:00;;;;;;;7.93;5.07;;;28.30;88.40;;;;;;5136673;27;20046;-65
2023/06/12 07:31:26;;;;;;;10.10;5.55;;;28.60;87.50;;;;;;5136332;27;20429;-65
2023/06/12 07:33:51;;;;;;;7.65;4.78;;;28.90;87.30;;;;;;5119161;27;20368;-66
2023/06/12 07:36:17;;;;;;;8.50;5.63;;;29.00;86.90;;;;;;5154502;27;20122;-65
2023/06/12 07:38:43;;;;;;;8.82;6.13;;;29.10;86.50;;;;;;5136249;27;20047;-66
2023/06/12 07:41:09;;;;;;;5.88;4.95;;;29.50;85.80;;;;;;5154393;27;20046;-65
2023/06/12 07:43:34;;;;;;;5.82;4.60;;;29.80;85.30;;;;;;5154020;27;20046;-65
2023/06/12 07:46:01;;;;;;;5.93;4.32;;;29.80;84.60;;;;;;5154259;27;20043;-65
2023/06/12 07:48:27;;;;;;;5.75;5.10;;;29.70;84.60;;;;;;5154263;27;20126;-65
2023/06/12 07:50:53;;;;;;;11.38;5.65;;;30.20;84.30;;;;;;5119243;27;20127;-66
2023/06/12 07:53:19;;;;;;;7.40;5.20;;;30.50;83.90;;;;;;5154136;27;20386;-65
2023/06/12 07:55:44;;;;;;;8.38;6.07;;;30.70;82.90;;;;;;5154235;27;20047;-65
2023/06/12 07:58:10;;;;;;;7.20;5.53;;;30.80;81.90;;;;;;5154052;27;20452;-65
2023/06/12 08:00:36;;;;;;;5.65;4.85;;;30.90;81.50;;;;;;5135924;27;20122;-65
2023/06/12 08:03:03;;;;;;;6.68;5.15;;;31.40;81.40;;;;;;5135989;27;20038;-65
2023/06/12 08:05:29;;;;;;;8.88;5.13;;;31.50;80.60;;;;;;5135584;27;20050;-65
2023/06/12 08:07:55;;;;;;;6.90;4.60;;;31.70;80.20;;;;;;5153914;27;20471;-65
2023/06/12 08:10:21;;;;;;;8.35;4.90;;;31.90;80.30;;;;;;5154245;27;20042;-67
2023/06/12 08:12:47;;;;;;;6.43;5.75;;;31.90;79.80;;;;;;5135929;27;20050;-67
2023/06/12 08:15:13;;;;;;;8.90;5.15;;;31.90;79.40;;;;;;5154075;27;20050;-66
2023/06/12 08:17:41;;;;;;;7.30;4.70;;;32.10;78.80;;;;;;5135350;27;20371;-65
2023/06/12 08:20:09;;;;;;;8.02;5.72;;;32.30;79.10;;;;;;5153913;27;20054;-66
2023/06/12 08:22:36;;;;;;;5.57;4.90;;;32.30;79.00;;;;;;5157379;27;20050;-66
2023/06/12 08:25:09;;;;;;;5.53;4.47;;;32.30;78.80;;;;;;5158417;27;20096;-67
2023/06/12 08:27:35;;;;;;;8.05;4.63;;;32.20;78.10;;;;;;5158133;27;20046;-67
2023/06/12 08:30:04;;;;;;;7.80;4.85;;;32.00;78.80;;;;;;5139658;27;20491;-67
2023/06/12 08:32:31;;;;;;;9.15;5.47;;;32.30;78.30;;;;;;5122383;27;20058;-66
2023/06/12 08:34:57;;;;;;;5.93;4.85;;;32.30;77.60;;;;;;5158287;27;20050;-69
2023/06/12 08:37:23;;;;;;;8.93;5.00;;;32.00;77.50;;;;;;5157643;27;20053;-67
2023/06/12 08:39:49;;;;;;;7.20;5.03;;;32.10;77.80;;;;;;5157652;27;20046;-67
2023/06/12 08:42:16;;;;;;;5.68;4.78;;;32.10;77.70;;;;;;5157353;27;20042;-66
2023/06/12 08:44:45;;;;;;;8.57;5.82;;;31.80;77.80;;;;;;5157423;27;20121;-66
2023/06/12 08:47:13;;;;;;;5.28;4.43;;;31.70;77.90;;;;;;5157732;27;20042;-67
2023/06/12 08:49:39;;;;;;;9.20;4.50;;;32.00;78.60;;;;;;5157998;27;20099;-67
2023/06/12 08:52:06;;;;;;;5.95;4.68;;;32.20;77.40;;;;;;5139548;27;20086;-66
2023/06/12 08:54:40;;;;;;;7.43;4.88;;;32.30;76.60;;;;;;5122382;27;20074;-66
2023/06/12 08:57:08;;;;;;;8.23;4.70;;;32.50;76.50;;;;;;5157297;27;20050;-66
2023/06/12 08:59:34;;;;;;;5.40;4.80;;;32.80;76.60;;;;;;5157449;27;20050;-67
2023/06/12 09:02:01;;;;;;;7.25;5.28;;;32.60;76.30;;;;;;5157396;27;20050;-66
2023/06/12 09:04:32;;;;;;;6.10;5.47;;;32.60;76.00;;;;;;5157968;27;20042;-69
2023/06/12 09:07:01;;;;;;;8.98;5.15;;;32.10;76.80;;;;;;5157548;27;20046;-66
2023/06/12 09:09:40;;;;;;;5.38;4.88;;;32.30;76.90;;;;;;5157383;27;20043;-67
2023/06/12 09:12:12;;;;;;;7.10;4.78;;;32.50;75.70;;;;;;5157498;27;20088;-67
2023/06/12 09:14:39;;;;;;;6.20;4.65;;;32.30;75.60;;;;;;5158114;27;20087;-69
2023/06/12 09:17:06;;;;;;;5.90;4.53;;;32.10;76.00;;;;;;5157419;27;20085;-67
2023/06/12 09:19:41;;;;;;;5.43;4.65;;;32.20;75.70;;;;;;5157368;27;20554;-66
2023/06/12 09:22:07;;;;;;;5.35;4.75;;;32.30;74.90;;;;;;5157272;27;20053;-66
2023/06/12 09:24:33;;;;;;;6.38;5.03;;;31.90;75.80;;;;;;5139261;27;20046;-67
2023/06/12 09:27:00;;;;;;;9.05;5.50;;;32.10;74.70;;;;;;5138768;27;20051;-69
2023/06/12 09:29:35;;;;;;;8.48;5.80;;;32.00;74.70;;;;;;5157405;27;20065;-66
2023/06/12 09:32:10;;;;;;;5.97;5.03;;;32.00;75.00;;;;;;5138499;27;20428;-66
2023/06/12 09:34:36;;;;;;;7.03;4.97;;;32.10;75.00;;;;;;5157745;27;20134;-66
2023/06/12 09:37:05;;;;;;;8.25;5.70;;;31.80;75.50;;;;;;5138982;27;20479;-66
2023/06/12 09:39:31;;;;;;;10.85;6.05;;;31.70;75.20;;;;;;5156985;27;20099;-67
2023/06/12 09:41:58;;;;;;;7.47;5.82;;;31.60;75.90;;;;;;5157078;27;20047;-67
2023/06/12 09:44:25;;;;;;;5.68;5.07;;;31.70;75.90;;;;;;5139203;27;20079;-67
2023/06/12 09:46:52;;;;;;;9.27;5.60;;;31.50;75.70;;;;;;5138434;27;20082;-66
2023/06/12 09:49:23;;;;;;;5.32;4.82;;;30.80;76.90;;;;;;5156763;27;20043;-66
2023/06/12 09:51:51;;;;;;;7.80;5.53;;;31.00;76.80;;;;;;5156818;27;20045;-68
2023/06/12 09:54:18;;;;;;;6.32;5.30;;;31.20;76.60;;;;;;5104486;27;20055;-68
2023/06/12 09:56:48;;;;;;;9.57;5.20;;;31.50;75.90;;;;;;5137603;27;20059;-66
2023/06/12 09:59:18;;;;;;;8.70;4.80;;;31.50;75.80;;;;;;5156631;27;20051;-66
2023/06/12 10:01:51;;;;;;;5.72;4.78;;;31.80;76.40;;;;;;5156521;27;20099;-68
2023/06/12 10:04:41;;;;;;;8.60;5.00;;;32.30;74.50;;;;;;5156911;27;20042;-66
2023/06/12 10:07:15;;;;;;;6.78;5.43;;;32.80;72.80;;;;;;5156754;27;20489;-66
2023/06/12 10:09:47;;;;;;;6.70;5.03;;;33.10;72.30;;;;;;5156429;27;20070;-66
2023/06/12 10:12:13;;;;;;;7.57;4.70;;;33.40;71.70;;;;;;5138476;27;20082;-66
2023/06/12 10:14:40;;;;;;;7.22;5.40;;;33.60;71.00;;;;;;5138188;27;20042;-66
2023/06/12 10:17:08;;;;;;;8.73;5.57;;;33.50;70.40;;;;;;5156194;27;20054;-66
2023/06/12 10:19:35;;;;;;;6.65;5.22;;;33.30;71.80;;;;;;5156181;27;20039;-67
2023/06/12 10:22:01;;;;;;;5.65;5.15;;;33.10;72.30;;;;;;5156026;27;20050;-66
2023/06/12 10:24:29;;;;;;;6.30;5.22;;;32.80;70.60;;;;;;5155889;27;20174;-66
2023/06/12 10:26:56;;;;;;;7.75;4.63;;;32.90;70.80;;;;;;5155924;27;20134;-67
2023/06/12 10:29:30;;;;;;;5.88;5.20;;;32.40;70.70;;;;;;5155987;27;20043;-67
2023/06/12 10:32:04;;;;;;;5.32;4.82;;;32.40;68.80;;;;;;5155987;27;20042;-66
2023/06/12 10:34:33;;;;;;;6.57;5.22;;;32.40;70.10;;;;;;5156438;27;20080;-66
2023/06/12 10:37:22;;;;;;;7.80;5.20;;;32.50;70.30;;;;;;5155770;27;20512;-69
2023/06/12 10:39:59;;;;;;;7.65;5.15;;;32.50;69.10;;;;;;5155732;27;20477;-67
2023/06/12 10:42:48;;;;;;;7.22;5.15;;;32.40;70.40;;;;;;5120821;27;20054;-66
2023/06/12 10:45:21;;;;;;;8.52;5.43;;;32.60;69.30;;;;;;5154655;27;20117;-68
2023/06/12 10:48:05;;;;;;;5.05;4.50;;;32.50;69.70;;;;;;5155587;27;20050;-68
2023/06/12 10:50:32;;;;;;;5.63;5.15;;;32.80;69.90;;;;;;5137792;27;20050;-66
2023/06/12 10:53:03;;;;;;;5.38;4.88;;;33.00;69.60;;;;;;5136954;27;20046;-66
2023/06/12 10:55:29;;;;;;;6.43;5.43;;;33.10;68.80;;;;;;5155275;27;20055;-68
2023/06/12 10:57:57;;;;;;;6.57;5.13;;;33.30;68.80;;;;;;5155410;27;20082;-67
2023/06/12 11:00:35;;;;;;;5.35;4.85;;;33.20;67.70;;;;;;5155367;27;20042;-66
2023/06/12 11:03:11;;;;;;;6.75;4.97;;;32.80;66.70;;;;;;5155090;27;20609;-67
2023/06/12 11:05:38;;;;;;;6.03;5.43;;;33.00;67.40;;;;;;5136905;27;20487;-67
2023/06/12 11:08:06;;;;;;;7.32;5.85;;;32.90;67.50;;;;;;5136911;27;20050;-67
2023/06/12 11:10:34;;;;;;;6.63;5.68;;;32.60;67.20;;;;;;5155031;27;20039;-66
2023/06/12 11:13:00;;;;;;;7.57;6.10;;;32.40;64.90;;;;;;5154976;27;20228;-65
2023/06/12 11:15:27;;;;;;;7.00;6.20;;;32.00;66.10;;;;;;5155141;27;20103;-66
2023/06/12 11:17:53;;;;;;;6.50;5.63;;;31.90;66.00;;;;;;5154952;27;20043;-65
2023/06/12 11:20:22;;;;;;;6.13;5.53;;;31.70;67.10;;;;;;5136837;27;20117;-64
2023/06/12 11:22:56;;;;;;;10.18;6.10;;;31.50;66.80;;;;;;5154934;27;20043;-64
2023/06/12 11:25:25;;;;;;;5.88;5.15;;;31.70;65.10;;;;;;5154576;27;20059;-65
2023/06/12 11:27:52;;;;;;;6.47;5.78;;;31.70;63.90;;;;;;5154754;27;20459;-66
2023/06/12 11:30:18;;;;;;;6.53;5.75;;;31.80;63.00;;;;;;5154758;27;20046;-66
2023/06/12 11:32:44;;;;;;;6.82;6.05;;;31.70;63.00;;;;;;5119493;27;20102;-67
2023/06/12 11:35:11;;;;;;;6.95;5.70;;;31.90;62.90;;;;;;5102340;27;20479;-66
2023/06/12 11:37:39;;;;;;;6.10;5.50;;;31.60;63.00;;;;;;5136486;27;20042;-69
2023/06/12 11:40:12;;;;;;;10.68;6.30;;;31.70;62.50;;;;;;5136033;27;20569;-65
2023/06/12 11:42:40;;;;;;;7.65;6.05;;;31.60;62.30;;;;;;5154506;27;20042;-66
2023/06/12 11:45:11;;;;;;;6.35;5.68;;;31.80;62.20;;;;;;5136026;27;20071;-65
2023/06/12 11:47:42;;;;;;;9.68;6.05;;;31.80;62.00;;;;;;5154265;27;20051;-66
2023/06/12 11:50:10;;;;;;;7.65;6.25;;;31.80;62.20;;;;;;5154237;27;20168;-67
2023/06/12 11:52:38;;;;;;;6.97;6.28;;;31.80;62.20;;;;;;5136074;27;20057;-65
2023/06/12 11:55:06;;;;;;;7.47;6.20;;;31.50;62.70;;;;;;5135895;27;20092;-67
2023/06/12 11:57:32;;;;;;;6.20;5.60;;;31.70;62.90;;;;;;5154154;27;20494;-66
2023/06/12 11:59:59;;;;;;;9.63;6.53;;;31.70;63.20;;;;;;5136499;27;20051;-67
2023/06/12 12:02:49;;;;;;;7.20;6.45;;;31.80;63.70;;;;;;5153733;27;20392;-65
2023/06/12 12:05:19;;;;;;;6.95;6.25;;;31.90;63.10;;;;;;5153937;27;20086;-66
2023/06/12 12:07:48;;;;;;;6.95;6.22;;;31.90;63.90;;;;;;5154427;27;20042;-66
2023/06/12 12:10:14;;;;;;;7.88;6.10;;;31.80;63.00;;;;;;5153925;27;20043;-68
2023/06/12 12:12:51;;;;;;;7.85;6.85;;;31.70;63.70;;;;;;5153842;27;20479;-65
2023/06/12 12:15:21;;;;;;;9.50;6.55;;;31.70;64.50;;;;;;5154253;27;20115;-68
2023/06/12 12:17:47;;;;;;;9.93;6.82;;;31.70;64.70;;;;;;5135494;27;20538;-67
2023/06/12 12:20:27;;;;;;;7.65;6.75;;;31.60;64.70;;;;;;5153836;27;20071;-66
2023/06/12 12:22:57;;;;;;;11.32;6.70;;;31.50;64.10;;;;;;5153870;27;20110;-68
2023/06/12 12:25:26;;;;;;;7.60;6.75;;;31.50;64.10;;;;;;5154347;27;20110;-67
2023/06/12 12:27:53;;;;;;;7.47;6.75;;;31.50;63.80;;;;;;5135734;27;20039;-66
2023/06/12 12:30:23;;;;;;;7.85;6.72;;;31.60;63.00;;;;;;5153832;27;20085;-66
2023/06/12 12:32:52;;;;;;;7.60;6.78;;;31.40;63.10;;;;;;5135203;27;20475;-66
2023/06/12 12:35:19;;;;;;;8.73;6.32;;;31.10;62.50;;;;;;5153813;27;20094;-68
2023/06/12 12:37:46;;;;;;;7.13;6.43;;;31.00;62.60;;;;;;5154190;27;20054;-66
2023/06/12 12:40:13;;;;;;;16.92;7.43;;;30.80;63.70;;;;;;5135169;27;20065;-68
2023/06/12 12:42:41;;;;;;;10.20;6.65;;;30.70;64.30;;;;;;5154284;27;20142;-66
2023/06/12 12:45:08;;;;;;;8.57;7.00;;;30.70;64.80;;;;;;5153237;27;20474;-66
2023/06/12 12:47:35;;;;;;;7.95;7.15;;;30.80;64.30;;;;;;5153697;27;20050;-67
2023/06/12 12:50:03;;;;;;;8.07;6.85;;;30.80;64.20;;;;;;5135361;27;20122;-67